Time;durP1;ratioP1;P1;durP2;ratioP2;P2;SDS_P1;SDS_P2;PMS_P1;PMS_P2;Temp;Humidity;BMP_temperature;BMP_pressure;BME280_temperature;BME280_humidity;BME280_pressure;Samples;Min_cycle;Max_cycle;Signal;HPM_P1;HPM_P2
2023/03/03 00:00:49;;;;;;;62.80;35.67;;;0.70;15.70;;;;;;5077240;28;20478;-63
2023/03/03 00:03:19;;;;;;;55.17;33.67;;;0.60;26.50;;;;;;5077251;28;20889;-60
2023/03/03 00:05:46;;;;;;;65.50;35.77;;;0.60;53.80;;;;;;5077473;28;20506;-62
2023/03/03 00:08:14;;;;;;;54.63;34.93;;;0.60;93.70;;;;;;5076983;28;20470;-62
2023/03/03 00:10:41;;;;;;;61.13;34.63;;;0.60;99.90;;;;;;5077070;28;20463;-61
2023/03/03 00:13:23;;;;;;;60.10;35.93;;;0.60;99.90;;;;;;5077383;28;20922;-63
2023/03/03 00:15:50;;;;;;;59.60;35.63;;;0.60;99.90;;;;;;5077402;28;20447;-63
2023/03/03 00:18:23;;;;;;;58.20;35.50;;;0.60;99.90;;;;;;5077022;28;20476;-62
2023/03/03 00:20:54;;;;;;;61.63;35.77;;;0.60;99.90;;;;;;5077225;28;20487;-61
2023/03/03 00:23:30;;;;;;;61.90;35.80;;;0.60;99.90;;;;;;5077460;28;20748;-61
2023/03/03 00:25:58;;;;;;;64.87;36.60;;;0.70;99.90;;;;;;5077175;28;20468;-61
2023/03/03 00:28:29;;;;;;;58.73;34.10;;;0.70;99.90;;;;;;5077345;28;20470;-61
2023/03/03 00:30:58;;;;;;;62.27;36.40;;;0.70;99.90;;;;;;5076987;28;20566;-63
2023/03/03 00:33:31;;;;;;;64.70;34.73;;;0.60;99.90;;;;;;5077084;28;20909;-62
2023/03/03 00:36:06;;;;;;;61.90;35.63;;;0.50;99.90;;;;;;5079362;28;20558;-62
2023/03/03 00:38:36;;;;;;;62.63;35.20;;;0.50;99.90;;;;;;5080404;28;20461;-63
2023/03/03 00:41:11;;;;;;;65.97;37.13;;;0.50;99.90;;;;;;5080945;28;20517;-62
2023/03/03 00:43:40;;;;;;;66.63;37.30;;;0.50;99.90;;;;;;5080182;28;20469;-62
2023/03/03 00:46:09;;;;;;;64.77;35.80;;;0.40;99.90;;;;;;5080383;28;20550;-63
2023/03/03 00:48:43;;;;;;;63.90;37.20;;;0.50;99.90;;;;;;5080447;28;20468;-61
2023/03/03 00:51:25;;;;;;;57.10;35.90;;;0.60;99.90;;;;;;5080837;28;20473;-62
2023/03/03 00:53:53;;;;;;;62.47;36.57;;;0.50;99.90;;;;;;5080238;28;20472;-60
2023/03/03 00:56:20;;;;;;;62.50;35.77;;;0.50;99.90;;;;;;5080371;28;20661;-62
2023/03/03 00:58:49;;;;;;;65.63;35.93;;;0.50;99.90;;;;;;5080355;28;20893;-62
2023/03/03 01:01:17;;;;;;;62.13;35.53;;;0.50;99.90;;;;;;5080686;28;20537;-62
2023/03/03 01:03:45;;;;;;;59.50;33.90;;;0.50;99.90;;;;;;5079668;28;20455;-63
2023/03/03 01:06:13;;;;;;;55.90;33.17;;;0.50;99.90;;;;;;5080154;28;20467;-62
2023/03/03 01:08:40;;;;;;;58.57;33.63;;;0.50;99.90;;;;;;5080110;28;20569;-63
2023/03/03 01:11:11;;;;;;;56.47;34.60;;;0.50;99.90;;;;;;5080557;28;20501;-63
2023/03/03 01:13:41;;;;;;;61.93;34.63;;;0.50;99.90;;;;;;5079726;28;20864;-62
2023/03/03 01:16:10;;;;;;;56.53;34.57;;;0.40;99.90;;;;;;5079754;28;20467;-63
2023/03/03 01:18:39;;;;;;;61.00;34.70;;;0.50;99.90;;;;;;5079980;28;20436;-63
2023/03/03 01:21:06;;;;;;;59.67;35.57;;;0.50;99.90;;;;;;5080066;28;20496;-63
2023/03/03 01:23:33;;;;;;;57.20;33.20;;;0.50;99.90;;;;;;5080159;28;20757;-62
2023/03/03 01:26:01;;;;;;;54.67;33.07;;;0.40;99.90;;;;;;5079938;28;20948;-63
2023/03/03 01:28:28;;;;;;;57.77;30.97;;;0.40;99.90;;;;;;5080030;28;20464;-62
2023/03/03 01:30:59;;;;;;;59.33;32.10;;;0.30;99.90;;;;;;5080053;28;20467;-63
2023/03/03 01:33:28;;;;;;;55.93;31.20;;;0.30;99.90;;;;;;5080648;28;20457;-63
2023/03/03 01:35:55;;;;;;;55.23;30.67;;;0.20;99.90;;;;;;5079664;28;20461;-63
2023/03/03 01:38:22;;;;;;;53.47;30.77;;;0.20;99.90;;;;;;5079178;28;20479;-63
2023/03/03 01:40:54;;;;;;;60.07;30.87;;;0.20;99.90;;;;;;5079862;28;20483;-63
2023/03/03 01:43:21;;;;;;;59.93;33.13;;;0.20;99.90;;;;;;5080097;28;20472;-63
2023/03/03 01:46:37;;;;;;;52.30;31.03;;;0.20;99.90;;;;;;5079700;28;20489;-60
2023/03/03 01:49:11;;;;;;;53.63;30.90;;;0.20;99.90;;;;;;5017441;28;20982;-63
2023/03/03 01:51:42;;;;;;;52.23;28.47;;;0.20;99.90;;;;;;5066513;28;20508;-63
2023/03/03 01:54:17;;;;;;;53.27;30.63;;;0.20;99.90;;;;;;5078963;28;20762;-63
2023/03/03 01:56:44;;;;;;;51.63;29.27;;;0.20;99.90;;;;;;5078920;28;20467;-63
2023/03/03 01:59:16;;;;;;;56.63;30.37;;;0.10;99.90;;;;;;5079030;28;20465;-64
2023/03/03 02:01:43;;;;;;;43.87;26.90;;;0.00;99.90;;;;;;5079059;28;20464;-64
2023/03/03 02:04:12;;;;;;;50.87;28.53;;;-0.10;99.90;;;;;;5078511;28;20770;-64
2023/03/03 02:06:44;;;;;;;52.33;29.87;;;0.00;99.90;;;;;;5077892;28;20478;-63
2023/03/03 02:09:16;;;;;;;56.57;28.10;;;0.00;99.90;;;;;;5079291;28;20464;-64
2023/03/03 02:11:46;;;;;;;52.33;29.93;;;0.00;99.90;;;;;;5079279;28;20465;-63
2023/03/03 02:14:14;;;;;;;52.90;28.27;;;0.10;99.90;;;;;;5078487;28;20497;-63
2023/03/03 02:16:41;;;;;;;51.07;27.23;;;0.10;99.90;;;;;;5078652;28;20566;-63
2023/03/03 02:19:19;;;;;;;54.93;31.27;;;0.00;99.90;;;;;;5078903;28;20497;-62
2023/03/03 02:21:46;;;;;;;51.53;30.07;;;0.10;99.90;;;;;;5078865;28;20470;-64
2023/03/03 02:24:21;;;;;;;59.93;30.33;;;0.10;99.90;;;;;;5078248;28;20509;-62
2023/03/03 02:26:50;;;;;;;48.97;30.03;;;0.10;99.90;;;;;;5078552;28;20462;-62
2023/03/03 02:29:17;;;;;;;53.40;29.60;;;0.10;99.90;;;;;;5078316;28;20461;-62
2023/03/03 02:31:44;;;;;;;53.97;29.47;;;0.10;99.90;;;;;;5078784;28;20469;-62
2023/03/03 02:34:11;;;;;;;53.10;29.50;;;0.20;99.90;;;;;;5078648;28;20476;-62
2023/03/03 02:36:39;;;;;;;51.70;31.27;;;0.20;99.90;;;;;;5078108;28;20470;-62
2023/03/03 02:39:10;;;;;;;52.30;28.87;;;0.20;99.90;;;;;;5078687;28;20759;-63
2023/03/03 02:41:42;;;;;;;47.80;28.90;;;0.20;99.90;;;;;;5078275;28;20483;-63
2023/03/03 02:44:12;;;;;;;53.60;28.87;;;0.30;99.90;;;;;;5078300;28;20471;-63
2023/03/03 02:46:42;;;;;;;50.73;30.53;;;0.30;99.90;;;;;;5078238;28;20469;-60
2023/03/03 02:49:11;;;;;;;52.03;30.20;;;0.30;99.90;;;;;;5078011;28;20468;-61
2023/03/03 02:51:39;;;;;;;58.63;31.17;;;0.40;99.90;;;;;;5078136;28;20735;-59
2023/03/03 02:54:07;;;;;;;51.77;29.17;;;0.40;99.90;;;;;;5078299;28;20465;-62
2023/03/03 02:56:35;;;;;;;56.10;29.97;;;0.40;99.90;;;;;;5077722;28;20471;-61
2023/03/03 02:59:03;;;;;;;45.93;29.30;;;0.40;99.90;;;;;;5078014;28;20469;-62
2023/03/03 03:01:35;;;;;;;53.80;31.77;;;0.40;99.90;;;;;;5077467;28;20475;-63
2023/03/03 03:04:05;;;;;;;51.27;28.57;;;0.40;99.90;;;;;;5076573;28;20461;-61
2023/03/03 03:06:32;;;;;;;47.40;29.00;;;0.30;99.90;;;;;;5076409;28;20565;-62
2023/03/03 03:09:00;;;;;;;44.20;27.10;;;0.30;99.90;;;;;;5077840;28;20770;-62
2023/03/03 03:11:27;;;;;;;52.60;27.77;;;0.30;99.90;;;;;;5078379;28;20878;-61
2023/03/03 03:13:54;;;;;;;54.73;29.20;;;0.30;99.90;;;;;;5077528;28;20473;-63
2023/03/03 03:16:21;;;;;;;47.07;27.40;;;0.20;99.90;;;;;;5076206;28;20838;-63
2023/03/03 03:18:50;;;;;;;47.00;28.83;;;0.30;99.90;;;;;;5077661;28;20490;-63
2023/03/03 03:21:17;;;;;;;49.63;27.93;;;0.20;99.90;;;;;;5077266;28;20553;-63
2023/03/03 03:23:45;;;;;;;53.20;28.47;;;0.20;99.90;;;;;;5078205;28;20468;-64
2023/03/03 03:26:12;;;;;;;48.27;27.50;;;0.10;99.90;;;;;;5077173;28;20503;-63
2023/03/03 03:28:40;;;;;;;44.63;26.80;;;0.20;99.90;;;;;;5077771;28;20465;-63
2023/03/03 03:31:11;;;;;;;50.17;30.00;;;0.20;99.90;;;;;;5077498;28;20740;-62
2023/03/03 03:33:38;;;;;;;48.00;27.43;;;0.30;99.90;;;;;;5077230;28;20554;-63
2023/03/03 03:36:07;;;;;;;49.30;28.57;;;0.30;99.90;;;;;;5077087;28;20460;-63
2023/03/03 03:38:36;;;;;;;52.60;28.40;;;0.30;99.90;;;;;;5077444;28;20789;-63
2023/03/03 03:41:04;;;;;;;51.17;29.03;;;0.30;99.90;;;;;;5077440;28;20458;-63
2023/03/03 03:43:32;;;;;;;51.63;28.67;;;0.20;99.90;;;;;;5077552;28;20467;-64
2023/03/03 03:45:59;;;;;;;47.13;28.07;;;0.20;99.90;;;;;;5077303;28;20526;-64
2023/03/03 03:48:27;;;;;;;51.80;29.97;;;0.20;99.90;;;;;;5077643;28;20880;-63
2023/03/03 03:50:54;;;;;;;48.40;26.93;;;0.20;99.90;;;;;;5077405;28;20895;-63
2023/03/03 03:53:23;;;;;;;55.50;27.57;;;0.10;99.90;;;;;;5077386;28;20662;-63
2023/03/03 03:55:50;;;;;;;49.73;25.70;;;0.20;99.90;;;;;;5077685;28;20553;-63
2023/03/03 03:58:18;;;;;;;47.83;26.97;;;0.20;99.90;;;;;;5077134;28;20928;-63
2023/03/03 04:00:47;;;;;;;50.57;29.17;;;0.20;99.90;;;;;;5077059;28;20473;-63
2023/03/03 04:03:14;;;;;;;53.60;28.07;;;0.20;99.90;;;;;;5077031;28;20474;-63
2023/03/03 04:05:41;;;;;;;55.53;29.33;;;0.10;99.90;;;;;;5076526;28;20492;-63
2023/03/03 04:08:09;;;;;;;49.53;28.30;;;0.10;99.90;;;;;;5077078;28;20464;-63
2023/03/03 04:10:38;;;;;;;50.70;28.17;;;0.10;99.90;;;;;;5078790;28;20462;-64
2023/03/03 04:13:05;;;;;;;49.23;26.90;;;0.20;99.90;;;;;;5081260;28;20491;-63
2023/03/03 04:15:34;;;;;;;48.53;28.87;;;0.20;99.90;;;;;;5081690;28;20549;-63
2023/03/03 04:18:01;;;;;;;51.33;27.40;;;0.20;99.90;;;;;;5081232;28;20463;-63
2023/03/03 04:20:28;;;;;;;53.70;29.27;;;0.20;99.90;;;;;;5081050;28;20812;-63
2023/03/03 04:22:56;;;;;;;52.47;28.80;;;0.20;99.90;;;;;;5080770;28;20467;-62
2023/03/03 04:25:24;;;;;;;50.10;28.60;;;0.10;99.90;;;;;;5081763;28;20586;-63
2023/03/03 04:27:53;;;;;;;47.70;26.77;;;0.10;99.90;;;;;;5081174;28;20561;-63
2023/03/03 04:30:20;;;;;;;49.43;25.67;;;0.10;99.90;;;;;;5081439;28;20467;-63
2023/03/03 04:32:48;;;;;;;48.00;25.27;;;0.20;99.90;;;;;;5081232;28;20775;-63
2023/03/03 04:35:15;;;;;;;46.87;24.97;;;0.10;99.90;;;;;;5080722;28;20460;-63
2023/03/03 04:37:42;;;;;;;48.23;27.00;;;0.10;99.90;;;;;;5080992;28;20466;-63
2023/03/03 04:40:11;;;;;;;49.87;26.20;;;0.00;99.90;;;;;;5080707;28;20880;-63
2023/03/03 04:42:38;;;;;;;53.47;28.30;;;0.00;99.90;;;;;;5080920;28;20465;-63
2023/03/03 04:45:08;;;;;;;52.80;25.50;;;0.00;99.90;;;;;;5081289;28;20468;-64
2023/03/03 04:47:35;;;;;;;50.50;25.77;;;0.00;99.90;;;;;;5081288;28;20473;-63
2023/03/03 04:50:03;;;;;;;53.33;26.40;;;0.00;99.90;;;;;;5080579;28;20468;-63
2023/03/03 04:52:30;;;;;;;49.10;25.63;;;-0.10;99.90;;;;;;5080770;28;20485;-63
2023/03/03 04:54:57;;;;;;;47.40;25.93;;;0.00;99.90;;;;;;5078994;28;20785;-63
2023/03/03 04:57:24;;;;;;;52.43;26.23;;;-0.10;99.90;;;;;;5080855;28;20461;-63
2023/03/03 04:59:51;;;;;;;51.10;26.50;;;0.00;99.90;;;;;;5080768;28;20474;-63
2023/03/03 05:02:20;;;;;;;48.83;26.47;;;0.10;99.90;;;;;;5080732;28;20465;-63
2023/03/03 05:04:47;;;;;;;52.63;27.47;;;0.00;99.90;;;;;;5079910;28;20503;-64
2023/03/03 05:07:14;;;;;;;44.17;25.60;;;0.00;99.90;;;;;;5080075;28;20494;-63
2023/03/03 05:09:41;;;;;;;43.10;26.10;;;0.10;99.90;;;;;;5080054;28;20464;-63
2023/03/03 05:12:08;;;;;;;44.23;25.30;;;0.00;99.90;;;;;;5080360;28;20912;-63
2023/03/03 05:14:36;;;;;;;50.00;25.87;;;0.10;99.90;;;;;;5080498;28;20514;-63
2023/03/03 05:17:04;;;;;;;50.37;27.43;;;0.10;99.90;;;;;;5080797;28;20471;-63
2023/03/03 05:19:33;;;;;;;48.60;25.30;;;0.10;99.90;;;;;;5080167;28;20955;-63
2023/03/03 05:22:01;;;;;;;53.07;26.43;;;0.00;99.90;;;;;;5079736;28;20467;-63
2023/03/03 05:24:28;;;;;;;46.30;25.70;;;0.10;99.90;;;;;;5080281;28;20475;-63
2023/03/03 05:26:55;;;;;;;42.13;23.97;;;0.10;99.90;;;;;;5080243;28;20800;-64
2023/03/03 05:29:23;;;;;;;54.30;25.40;;;0.10;99.90;;;;;;5079419;28;20997;-63
2023/03/03 05:31:50;;;;;;;50.90;25.70;;;0.10;99.90;;;;;;5080393;28;20464;-64
2023/03/03 05:34:17;;;;;;;52.40;27.97;;;0.10;99.90;;;;;;5079442;28;20470;-63
2023/03/03 05:36:46;;;;;;;51.37;25.20;;;0.20;99.90;;;;;;5078204;28;20472;-64
2023/03/03 05:39:14;;;;;;;52.13;27.50;;;0.00;99.90;;;;;;5079005;28;20467;-63
2023/03/03 05:41:41;;;;;;;49.17;27.57;;;0.10;99.90;;;;;;5079532;28;20464;-63
2023/03/03 05:44:09;;;;;;;49.53;26.27;;;0.10;99.90;;;;;;5079128;28;20474;-63
2023/03/03 05:46:36;;;;;;;52.30;26.50;;;0.10;99.90;;;;;;5079050;28;20492;-64
2023/03/03 05:49:03;;;;;;;45.87;25.33;;;0.10;99.90;;;;;;5077789;28;20480;-64
2023/03/03 05:51:31;;;;;;;49.70;26.10;;;0.00;99.90;;;;;;5066064;28;20461;-64
2023/03/03 05:54:00;;;;;;;45.03;24.40;;;0.00;99.90;;;;;;5057470;28;20465;-64
2023/03/03 05:56:27;;;;;;;47.03;24.40;;;0.00;99.90;;;;;;5056378;28;20559;-61
2023/03/03 05:58:54;;;;;;;50.00;26.40;;;0.00;99.90;;;;;;5056403;28;20460;-64
2023/03/03 06:01:22;;;;;;;51.00;26.43;;;0.00;99.90;;;;;;5056359;28;20469;-63
2023/03/03 06:03:49;;;;;;;49.50;25.63;;;0.00;99.90;;;;;;5056555;28;20607;-64
2023/03/03 06:06:18;;;;;;;44.83;24.90;;;0.00;99.90;;;;;;5055644;28;20490;-64
2023/03/03 06:08:45;;;;;;;45.57;25.60;;;-0.10;99.90;;;;;;5057683;28;20497;-63
2023/03/03 06:11:15;;;;;;;46.30;26.43;;;0.00;99.90;;;;;;5059258;28;20474;-63
2023/03/03 06:13:42;;;;;;;53.27;26.83;;;0.10;99.90;;;;;;5068011;28;20517;-64
2023/03/03 06:16:09;;;;;;;52.73;26.43;;;0.10;99.90;;;;;;5076876;28;20859;-64
2023/03/03 06:18:37;;;;;;;51.47;27.37;;;0.10;99.90;;;;;;5077254;28;20464;-64
2023/03/03 06:21:04;;;;;;;47.97;26.53;;;0.00;99.90;;;;;;5077804;28;20492;-64
2023/03/03 06:23:31;;;;;;;44.70;23.67;;;0.10;99.90;;;;;;5078241;28;20462;-64
2023/03/03 06:25:58;;;;;;;53.50;24.97;;;0.00;99.90;;;;;;5077957;28;20489;-64
2023/03/03 06:28:27;;;;;;;51.00;26.03;;;0.00;99.90;;;;;;5077730;28;20475;-64
2023/03/03 06:30:55;;;;;;;57.67;27.80;;;0.10;99.90;;;;;;5078341;28;20478;-63
2023/03/03 06:33:22;;;;;;;49.77;24.10;;;0.10;99.90;;;;;;5074670;28;20467;-64
2023/03/03 06:35:50;;;;;;;49.00;26.83;;;0.10;99.90;;;;;;5077034;28;20462;-63
2023/03/03 06:38:17;;;;;;;58.03;28.53;;;0.10;99.90;;;;;;5077347;28;20472;-63
2023/03/03 06:40:46;;;;;;;58.93;28.50;;;0.10;99.90;;;;;;5076830;28;20915;-64
2023/03/03 06:43:14;;;;;;;54.50;26.77;;;0.10;99.90;;;;;;5060321;28;20459;-64
2023/03/03 06:45:43;;;;;;;59.43;29.03;;;0.20;99.90;;;;;;5058092;28;20483;-64
2023/03/03 06:48:10;;;;;;;48.80;25.10;;;0.30;99.90;;;;;;5058354;28;20518;-64
2023/03/03 06:50:38;;;;;;;51.47;25.93;;;0.10;99.90;;;;;;5057270;28;20467;-63
2023/03/03 06:53:11;;;;;;;50.73;26.37;;;0.10;99.90;;;;;;5058281;28;20461;-63
2023/03/03 06:55:39;;;;;;;55.73;26.30;;;0.30;99.90;;;;;;5059127;28;20495;-63
2023/03/03 06:58:13;;;;;;;54.37;27.57;;;0.20;99.90;;;;;;5058359;28;20524;-64
2023/03/03 07:00:43;;;;;;;51.40;25.57;;;0.20;99.90;;;;;;5056907;28;20471;-64
2023/03/03 07:03:16;;;;;;;51.33;25.70;;;0.20;99.90;;;;;;5057272;28;20465;-63
2023/03/03 07:05:44;;;;;;;58.80;26.13;;;0.30;99.90;;;;;;5057210;28;20469;-64
2023/03/03 07:08:15;;;;;;;44.70;23.67;;;0.40;99.90;;;;;;5057021;28;20461;-64
2023/03/03 07:10:43;;;;;;;45.17;24.63;;;0.40;99.90;;;;;;5056950;28;20446;-64
2023/03/03 07:13:19;;;;;;;52.13;26.60;;;0.30;99.90;;;;;;5056839;28;20476;-64
2023/03/03 07:15:49;;;;;;;56.90;28.17;;;0.40;99.90;;;;;;5058781;28;20464;-64
2023/03/03 07:18:43;;;;;;;54.10;27.47;;;0.40;99.90;;;;;;5058651;28;20514;-64
2023/03/03 07:21:18;;;;;;;48.67;27.30;;;0.50;99.90;;;;;;5045110;28;20801;-64
2023/03/03 07:23:46;;;;;;;55.03;27.30;;;0.50;99.90;;;;;;5058998;28;20553;-63
2023/03/03 07:26:15;;;;;;;54.57;27.07;;;0.50;99.90;;;;;;5072941;28;20490;-63
2023/03/03 07:28:43;;;;;;;45.43;24.80;;;0.40;99.90;;;;;;5077858;28;20438;-63
2023/03/03 07:31:31;;;;;;;44.50;23.60;;;0.60;99.90;;;;;;5078223;28;20461;-64
2023/03/03 07:34:00;;;;;;;42.43;23.33;;;0.70;99.90;;;;;;5078954;28;20735;-63
2023/03/03 07:36:30;;;;;;;47.70;23.90;;;0.70;99.90;;;;;;5078180;28;20464;-63
2023/03/03 07:39:00;;;;;;;47.13;23.63;;;0.70;99.90;;;;;;5078074;28;20461;-63
2023/03/03 07:41:28;;;;;;;44.63;21.50;;;0.80;99.90;;;;;;5078001;28;20530;-64
2023/03/03 07:43:58;;;;;;;46.70;23.03;;;0.90;99.90;;;;;;5076790;28;20468;-64
2023/03/03 07:46:40;;;;;;;39.50;21.13;;;0.90;99.90;;;;;;5071972;28;20584;-64
2023/03/03 07:49:24;;;;;;;44.07;22.00;;;0.80;99.90;;;;;;5076309;28;20466;-64
2023/03/03 07:51:56;;;;;;;44.77;24.37;;;0.60;99.90;;;;;;5076675;28;20453;-64
2023/03/03 07:54:31;;;;;;;43.07;23.80;;;0.70;99.90;;;;;;5076609;28;20870;-63
2023/03/03 07:57:11;;;;;;;42.23;21.80;;;0.70;99.90;;;;;;5077273;28;20461;-64
2023/03/03 07:59:41;;;;;;;38.43;21.97;;;0.70;99.90;;;;;;5078552;28;20866;-64
2023/03/03 08:02:42;;;;;;;39.97;22.13;;;0.70;99.90;;;;;;5075438;28;20785;-63
2023/03/03 08:05:35;;;;;;;38.23;20.70;;;0.70;99.90;;;;;;5076616;28;20467;-63
2023/03/03 08:08:28;;;;;;;39.67;21.50;;;0.70;99.90;;;;;;5062784;28;21014;-63
2023/03/03 08:10:56;;;;;;;42.73;23.63;;;0.70;99.90;;;;;;5058911;28;20561;-64
2023/03/03 08:13:27;;;;;;;42.53;21.77;;;0.60;99.90;;;;;;5077664;28;20838;-63
2023/03/03 08:16:00;;;;;;;48.93;23.50;;;0.60;99.90;;;;;;5078102;28;20883;-64
2023/03/03 08:18:34;;;;;;;45.17;21.13;;;0.70;99.90;;;;;;5077876;28;20461;-63
2023/03/03 08:21:03;;;;;;;43.43;20.37;;;0.80;99.90;;;;;;5077998;28;20967;-63
2023/03/03 08:23:32;;;;;;;44.63;23.30;;;0.80;99.90;;;;;;5077527;28;20461;-63
2023/03/03 08:25:59;;;;;;;46.80;23.83;;;0.90;99.90;;;;;;5075797;28;20465;-64
2023/03/03 08:28:26;;;;;;;43.63;23.47;;;1.00;99.90;;;;;;5075357;28;20534;-63
2023/03/03 08:30:53;;;;;;;49.73;25.30;;;1.10;99.90;;;;;;5076695;28;20464;-63
2023/03/03 08:33:20;;;;;;;46.20;23.83;;;1.10;38.20;;;;;;5074437;28;20465;-63
2023/03/03 08:35:49;;;;;;;48.30;23.07;;;1.10;1.00;;;;;;5076020;28;20896;-63
2023/03/03 08:38:18;;;;;;;42.63;21.77;;;1.10;1.00;;;;;;5076477;28;20754;-64
2023/03/03 08:40:46;;;;;;;46.23;24.10;;;1.10;1.00;;;;;;5076711;28;20457;-64
2023/03/03 08:43:16;;;;;;;40.50;22.10;;;1.20;1.00;;;;;;5076873;28;20468;-64
2023/03/03 08:45:44;;;;;;;38.80;21.20;;;1.30;99.90;;;;;;5075780;28;20766;-64
2023/03/03 08:48:19;;;;;;;41.80;20.03;;;1.30;99.90;;;;;;5074156;28;20496;-63
2023/03/03 08:50:48;;;;;;;45.30;22.90;;;0.90;99.90;;;;;;5077164;28;20468;-64
2023/03/03 08:53:16;;;;;;;49.70;24.50;;;0.90;1.00;;;;;;5077174;28;20465;-63
2023/03/03 08:55:43;;;;;;;38.77;21.63;;;0.90;1.00;;;;;;5075413;28;20460;-64
2023/03/03 08:58:11;;;;;;;46.07;23.30;;;0.70;1.00;;;;;;5078320;28;20470;-63
2023/03/03 09:00:38;;;;;;;44.40;22.93;;;0.80;1.00;;;;;;5078665;28;20738;-63
2023/03/03 09:03:06;;;;;;;42.27;22.00;;;0.90;73.80;;;;;;5078946;28;20630;-63
2023/03/03 09:05:35;;;;;;;44.77;22.80;;;1.10;1.00;;;;;;5073877;28;20523;-63
2023/03/03 09:08:04;;;;;;;42.83;22.73;;;1.00;1.00;;;;;;5078227;28;20499;-62
2023/03/03 09:10:33;;;;;;;44.17;21.47;;;1.20;1.00;;;;;;5079409;28;20866;-60
2023/03/03 09:13:04;;;;;;;44.67;22.77;;;1.30;99.90;;;;;;5079788;28;20903;-63
2023/03/03 09:15:33;;;;;;;35.30;19.03;;;1.30;39.40;;;;;;5080876;28;20465;-63
2023/03/03 09:18:10;;;;;;;40.67;21.70;;;1.40;99.90;;;;;;5080662;28;20468;-62
2023/03/03 09:20:39;;;;;;;40.27;22.53;;;1.40;1.00;;;;;;5078953;28;20586;-64
2023/03/03 09:23:32;;;;;;;34.47;19.50;;;1.40;99.90;;;;;;5079452;28;20462;-64
2023/03/03 09:26:09;;;;;;;38.30;21.10;;;1.40;99.90;;;;;;5080006;28;20949;-64
2023/03/03 09:28:37;;;;;;;37.80;20.67;;;1.40;99.90;;;;;;5079595;28;20929;-63
2023/03/03 09:31:16;;;;;;;40.90;19.67;;;1.50;99.90;;;;;;5079869;28;20436;-61
2023/03/03 09:33:44;;;;;;;37.10;22.60;;;1.60;99.90;;;;;;5079647;28;20516;-64
2023/03/03 09:36:27;;;;;;;42.30;22.07;;;1.50;99.90;;;;;;5079063;28;20557;-64
2023/03/03 09:38:56;;;;;;;44.40;22.10;;;1.40;99.90;;;;;;5079305;28;20464;-64
2023/03/03 09:41:53;;;;;;;40.00;21.43;;;1.30;99.90;;;;;;5079281;28;20460;-64
2023/03/03 09:44:47;;;;;;;40.97;23.47;;;1.50;99.90;;;;;;5066644;28;20468;-59
2023/03/03 09:47:32;;;;;;;48.07;24.20;;;1.70;99.90;;;;;;5079108;28;20493;-63
2023/03/03 09:50:09;;;;;;;49.50;23.90;;;1.60;99.90;;;;;;5079244;28;20497;-64
2023/03/03 09:52:46;;;;;;;46.23;24.00;;;1.70;99.90;;;;;;5078640;28;20465;-63
2023/03/03 09:55:35;;;;;;;42.93;22.87;;;1.60;95.60;;;;;;5078243;28;20492;-62
2023/03/03 09:58:19;;;;;;;41.80;22.20;;;1.70;99.90;;;;;;5078445;28;20523;-61
2023/03/03 10:00:56;;;;;;;41.97;21.17;;;1.70;91.20;;;;;;5077781;28;20504;-59
2023/03/03 10:03:45;;;;;;;48.30;24.37;;;1.70;53.20;;;;;;5079118;28;20878;-61
2023/03/03 10:06:20;;;;;;;43.03;22.00;;;1.90;77.60;;;;;;5078723;28;20496;-60
2023/03/03 10:08:57;;;;;;;40.77;23.13;;;2.10;47.50;;;;;;5077761;28;20493;-63
2023/03/03 10:11:34;;;;;;;41.37;21.57;;;2.10;1.00;;;;;;5078493;28;20465;-61
2023/03/03 10:14:22;;;;;;;42.67;23.00;;;2.10;1.00;;;;;;5077935;28;20536;-60
2023/03/03 10:17:22;;;;;;;43.03;24.23;;;2.20;1.00;;;;;;5078043;28;20476;-61
2023/03/03 10:20:00;;;;;;;44.80;22.90;;;2.10;1.00;;;;;;5073164;28;20500;-61
2023/03/03 10:22:39;;;;;;;43.33;22.43;;;2.10;1.00;;;;;;5060195;28;20605;-61
2023/03/03 10:25:21;;;;;;;44.53;22.97;;;1.90;1.00;;;;;;5078341;28;20464;-58
2023/03/03 10:28:04;;;;;;;42.00;22.33;;;2.20;1.00;;;;;;5078375;28;20493;-60
2023/03/03 10:30:43;;;;;;;46.03;25.27;;;2.30;1.00;;;;;;5078053;28;20449;-61
2023/03/03 10:33:17;;;;;;;42.53;24.07;;;2.30;1.00;;;;;;5078395;28;20496;-60
2023/03/03 10:36:06;;;;;;;41.33;22.50;;;2.50;1.00;;;;;;5077196;28;20461;-62
2023/03/03 10:38:47;;;;;;;42.77;21.90;;;2.60;1.00;;;;;;5059903;28;20465;-63
2023/03/03 10:41:30;;;;;;;41.90;21.93;;;2.70;1.00;;;;;;5077300;28;20465;-62
2023/03/03 10:44:31;;;;;;;40.80;21.07;;;2.50;1.00;;;;;;5077398;28;20454;-60
2023/03/03 10:47:10;;;;;;;38.80;21.87;;;2.50;1.00;;;;;;5041512;28;20475;-60
2023/03/03 10:49:56;;;;;;;42.47;22.33;;;2.50;1.00;;;;;;5077778;28;20488;-62
2023/03/03 10:52:33;;;;;;;43.83;23.17;;;2.20;1.00;;;;;;5059997;28;20953;-62
2023/03/03 10:55:30;;;;;;;43.43;22.70;;;2.30;1.00;;;;;;5077694;28;20461;-60
2023/03/03 10:58:24;;;;;;;40.27;22.70;;;2.20;1.00;;;;;;5073629;28;20773;-55
2023/03/03 11:01:00;;;;;;;42.57;24.20;;;2.20;1.00;;;;;;5065654;28;20469;-58
2023/03/03 11:04:05;;;;;;;42.50;22.47;;;2.30;1.00;;;;;;5075807;28;20471;-56
2023/03/03 11:06:43;;;;;;;41.10;21.80;;;2.60;1.00;;;;;;5036765;28;20715;-55
2023/03/03 11:09:23;;;;;;;43.60;23.67;;;3.00;1.00;;;;;;5075715;28;20496;-57
2023/03/03 11:11:59;;;;;;;38.13;21.30;;;3.10;1.00;;;;;;5075021;28;20464;-54
2023/03/03 11:14:33;;;;;;;49.40;23.93;;;3.40;1.00;;;;;;5075436;28;20798;-53
2023/03/03 11:17:10;;;;;;;37.60;20.50;;;3.40;1.00;;;;;;5073997;28;20461;-57
2023/03/03 11:20:02;;;;;;;37.00;21.43;;;3.20;1.00;;;;;;5074879;28;20492;-58
2023/03/03 11:22:39;;;;;;;38.30;21.77;;;2.80;1.00;;;;;;5076916;28;20909;-54
2023/03/03 11:25:16;;;;;;;37.33;22.30;;;2.80;1.00;;;;;;5076449;28;20890;-54
2023/03/03 11:28:11;;;;;;;30.83;19.50;;;3.20;1.00;;;;;;5074263;28;20495;-56
2023/03/03 11:30:49;;;;;;;33.97;19.80;;;3.60;1.00;;;;;;5075893;28;20465;-53
2023/03/03 11:33:23;;;;;;;33.43;19.90;;;3.80;1.00;;;;;;5058375;28;20576;-53
2023/03/03 11:35:57;;;;;;;36.17;20.10;;;4.00;1.00;;;;;;5076329;28;20457;-57
2023/03/03 11:38:46;;;;;;;33.07;21.80;;;4.10;1.00;;;;;;5075040;28;20452;-53
2023/03/03 11:41:23;;;;;;;36.63;20.70;;;4.20;1.00;;;;;;5075409;28;20461;-56
2023/03/03 11:43:55;;;;;;;37.93;21.90;;;3.50;1.00;;;;;;5074119;28;20526;-59
2023/03/03 11:46:29;;;;;;;36.23;21.07;;;3.40;1.00;;;;;;5074003;28;20464;-57
2023/03/03 11:49:03;;;;;;;38.73;22.33;;;3.10;1.00;;;;;;5073950;28;20556;-54
2023/03/03 11:51:41;;;;;;;37.47;21.77;;;3.20;1.00;;;;;;5074527;28;20464;-57
2023/03/03 11:54:15;;;;;;;32.97;19.90;;;3.30;1.00;;;;;;5075201;28;20459;-55
2023/03/03 11:56:43;;;;;;;29.57;19.83;;;3.40;1.00;;;;;;5074878;28;20472;-58
2023/03/03 11:59:37;;;;;;;32.97;18.17;;;3.60;1.00;;;;;;5075147;28;20973;-56
2023/03/03 12:02:22;;;;;;;33.20;18.10;;;3.80;1.00;;;;;;5074602;28;20759;-57
2023/03/03 12:04:55;;;;;;;27.13;16.33;;;4.00;1.00;;;;;;5072251;28;20501;-60
2023/03/03 12:07:32;;;;;;;29.33;16.50;;;4.40;1.00;;;;;;5076183;28;20476;-58
2023/03/03 12:10:14;;;;;;;32.17;18.00;;;4.60;1.00;;;;;;5075475;28;20446;-58
2023/03/03 12:12:44;;;;;;;36.43;21.70;;;4.80;99.90;;;;;;5075655;28;20856;-57
2023/03/03 12:15:27;;;;;;;35.17;19.47;;;4.40;99.90;;;;;;5076605;28;20882;-58
2023/03/03 12:18:09;;;;;;;34.10;20.43;;;4.50;99.90;;;;;;5076900;28;20891;-53
2023/03/03 12:20:45;;;;;;;33.67;19.90;;;4.60;99.90;;;;;;5076331;28;20493;-58
2023/03/03 12:23:28;;;;;;;35.10;18.30;;;4.40;99.90;;;;;;5070642;28;20469;-54
2023/03/03 12:26:00;;;;;;;32.40;17.77;;;4.60;99.90;;;;;;5069214;28;20556;-59
2023/03/03 12:28:35;;;;;;;36.23;19.83;;;4.60;99.90;;;;;;5075980;28;20492;-55
2023/03/03 12:31:22;;;;;;;32.40;17.60;;;4.50;99.90;;;;;;5077231;28;20551;-60
2023/03/03 12:33:55;;;;;;;32.23;18.87;;;4.60;99.90;;;;;;5080116;28;20912;-60
2023/03/03 12:36:39;;;;;;;30.37;17.57;;;4.50;99.90;;;;;;5079081;28;20457;-56
2023/03/03 12:39:12;;;;;;;34.17;18.73;;;4.60;99.90;;;;;;5078564;28;20758;-60
2023/03/03 12:41:46;;;;;;;32.73;19.07;;;4.60;99.90;;;;;;5061428;28;20450;-59
2023/03/03 12:44:21;;;;;;;34.73;18.00;;;4.30;99.90;;;;;;5078461;28;20472;-58
2023/03/03 12:46:58;;;;;;;31.83;19.63;;;4.60;99.90;;;;;;5074895;28;20490;-60
2023/03/03 12:49:33;;;;;;;36.47;18.60;;;4.80;99.90;;;;;;5074025;28;20489;-60
2023/03/03 12:52:14;;;;;;;28.73;17.17;;;5.00;99.90;;;;;;5074195;28;20765;-57
2023/03/03 12:55:01;;;;;;;27.00;17.00;;;5.10;99.90;;;;;;5075368;28;20464;-56
2023/03/03 12:57:35;;;;;;;32.57;17.83;;;5.30;99.90;;;;;;5074859;28;20460;-58
2023/03/03 13:00:19;;;;;;;37.60;19.57;;;5.40;99.90;;;;;;5074604;28;20472;-60
2023/03/03 13:02:59;;;;;;;29.67;18.13;;;5.50;99.90;;;;;;5075141;28;20507;-58
2023/03/03 13:05:32;;;;;;;30.83;17.87;;;5.70;99.90;;;;;;5073974;28;20469;-60